»·PEaware :: N172TT KLAX-KSAN

N172TT :: KLAX-KSAN

FLIGHT INFORMATION

Flight Status: Arrived
Operator: Privately registered:
United States
More flights under this callsign
Pilot: Thomas T. (19955)
Aircraft: CESSNA 172 SKYHAWK
(C172)
More flights by this aircraft type
Origin: KLAX Los Angeles Intl
United States
Destination: KSAN San Diego Intl-Lindbergh
United States
More flights between these airports :: More routes between these airports
Route: +
File this flight plan on PilotEdge
Remarks:
Altitude:
(Current/Filed)
0ft
Speed:
(Current/Filed)
0kts
Departed: 01-Sep-18 12:26 PM
Arrived: 01-Sep-18 01:42 PM
Distance/Time
Traveled:
95nm/1:16
Distance/Time
To Go:
Arrived

Flight Plot

Page will automatically refresh every two minutes.


Map Options




Map Legend


Flown Route
Filed Route
Departure Airport
Arrival Airport
Navaid (VOR, NDB)
Fix

Horizontal Profiles

Position Reports

Time Latitude Longitude Heading Altitude Ground
Speed
01-Sep-18 12:15 33.933263 -118.397438 264 109ft 0kts
01-Sep-18 12:16 33.933263 -118.397438 264 109ft 0kts
01-Sep-18 12:17 33.933263 -118.397438 264 109ft 0kts
01-Sep-18 12:18 33.933263 -118.397438 264 109ft 0kts
01-Sep-18 12:19 33.933263 -118.397438 264 109ft 0kts
01-Sep-18 12:20 33.933261 -118.397466 267 109ft 3kts
01-Sep-18 12:21 33.934682 -118.396795 82 107ft 17kts
01-Sep-18 12:22 33.935312 -118.390721 84 102ft 18kts
01-Sep-18 12:23 33.935969 -118.384311 85 98ft 18kts
01-Sep-18 12:24 33.936340 -118.382991 7 96ft 0kts
01-Sep-18 12:25 33.936340 -118.382991 7 96ft 0kts
01-Sep-18 12:26 33.936822 -118.382922 5 96ft 14kts
01-Sep-18 12:27 33.936574 -118.394796 263 271ft 83kts
01-Sep-18 12:28 33.934449 -118.426109 262 940ft 109kts
01-Sep-18 12:29 33.931836 -118.462649 262 1404ft 105kts
01-Sep-18 12:30 33.929398 -118.497168 262 1806ft 102kts
01-Sep-18 12:31 33.926803 -118.532522 262 1994ft 111kts
01-Sep-18 12:32 33.923841 -118.570281 258 1998ft 112kts
01-Sep-18 12:33 33.897682 -118.577410 171 2000ft 108kts
01-Sep-18 12:34 33.869039 -118.568530 142 2005ft 107kts
01-Sep-18 12:35 33.846952 -118.544602 136 2011ft 106kts
01-Sep-18 12:36 33.826103 -118.519576 135 2018ft 105kts
01-Sep-18 12:37 33.806002 -118.494039 133 2026ft 104kts
01-Sep-18 12:38 33.786049 -118.468915 133 2033ft 104kts
01-Sep-18 12:39 33.765934 -118.443956 133 2041ft 103kts
01-Sep-18 12:40 33.745720 -118.419181 132 2048ft 103kts
01-Sep-18 12:41 33.725444 -118.394590 132 2055ft 104kts
01-Sep-18 12:42 33.705216 -118.370118 132 2061ft 104kts
01-Sep-18 12:44 33.684897 -118.345419 132 2066ft 104kts
01-Sep-18 12:45 33.664680 -118.320538 132 2072ft 103kts
01-Sep-18 12:46 33.644959 -118.295744 132 2077ft 103kts
01-Sep-18 12:47 33.625420 -118.270462 132 2072ft 104kts
01-Sep-18 12:48 33.606868 -118.245615 132 2059ft 104kts
01-Sep-18 12:49 33.587824 -118.219132 132 2062ft 105kts
01-Sep-18 12:50 33.569250 -118.192053 132 2063ft 107kts
01-Sep-18 12:51 33.548573 -118.165793 137 2062ft 109kts
01-Sep-18 12:52 33.527671 -118.139311 136 2062ft 110kts
01-Sep-18 12:53 33.506702 -118.112395 136 2061ft 111kts
01-Sep-18 12:54 33.485819 -118.085178 136 2061ft 110kts
01-Sep-18 12:55 33.465308 -118.058014 136 2060ft 110kts
01-Sep-18 12:56 33.444821 -118.030730 138 2058ft 110kts
01-Sep-18 12:57 33.423937 -118.004474 138 2057ft 111kts
01-Sep-18 12:58 33.402622 -117.977912 138 2056ft 112kts
01-Sep-18 12:59 33.380780 -117.950964 138 2055ft 113kts
01-Sep-18 13:00 33.358721 -117.923888 137 2055ft 114kts
01-Sep-18 13:01 33.336542 -117.896614 137 2054ft 114kts
01-Sep-18 13:02 33.314662 -117.869483 137 2054ft 113kts
01-Sep-18 13:03 33.293290 -117.842670 137 2053ft 111kts
01-Sep-18 13:04 33.272088 -117.815866 137 2050ft 110kts
01-Sep-18 13:04 33.254550 -117.793629 137 2049ft 110kts
01-Sep-18 13:06 33.230118 -117.762547 137 2046ft 110kts
01-Sep-18 13:07 33.209083 -117.735694 137 2044ft 110kts
01-Sep-18 13:08 33.188167 -117.708907 137 2041ft 110kts
01-Sep-18 13:08 33.170726 -117.686505 136 2039ft 110kts
01-Sep-18 13:09 33.150072 -117.659901 136 2037ft 110kts
01-Sep-18 13:10 33.131272 -117.635617 131 2034ft 110kts
01-Sep-18 13:11 33.109054 -117.609742 134 2057ft 112kts
01-Sep-18 13:13 33.083201 -117.578899 134 2058ft 113kts
01-Sep-18 13:13 33.064616 -117.556657 134 2057ft 113kts
01-Sep-18 13:14 33.042466 -117.530073 134 2057ft 113kts
01-Sep-18 13:15 33.020790 -117.503977 134 2057ft 113kts
01-Sep-18 13:16 32.998581 -117.477158 134 2057ft 113kts
01-Sep-18 13:17 32.976518 -117.450429 133 2057ft 113kts
01-Sep-18 13:18 32.951733 -117.430336 192 2047ft 113kts
01-Sep-18 13:19 32.927739 -117.450669 254 2037ft 113kts
01-Sep-18 13:20 32.933670 -117.486132 312 2029ft 113kts
01-Sep-18 13:21 32.955662 -117.512751 314 2074ft 110kts
01-Sep-18 13:22 32.977795 -117.538606 320 2095ft 113kts
01-Sep-18 13:23 33.006428 -117.539078 24 2086ft 113kts
01-Sep-18 13:24 33.032298 -117.517871 36 2084ft 113kts
01-Sep-18 13:25 33.052220 -117.488766 54 2082ft 113kts
01-Sep-18 13:26 33.067543 -117.456045 68 2081ft 113kts
01-Sep-18 13:27 33.065231 -117.418902 104 2076ft 113kts
01-Sep-18 13:28 33.050154 -117.386104 124 2074ft 113kts
01-Sep-18 13:29 33.030193 -117.357160 133 2073ft 113kts
01-Sep-18 13:30 33.006571 -117.333556 147 2072ft 113kts
01-Sep-18 13:31 32.979536 -117.314289 153 2071ft 113kts
01-Sep-18 13:32 32.951375 -117.297365 153 2071ft 113kts
01-Sep-18 13:33 32.920894 -117.279014 153 1635ft 126kts
01-Sep-18 13:34 32.891512 -117.261260 152 1546ft 116kts
01-Sep-18 13:35 32.863116 -117.244016 152 1545ft 114kts
01-Sep-18 13:36 32.833947 -117.229675 163 1544ft 113kts
01-Sep-18 13:37 32.803830 -117.219019 163 1543ft 113kts
01-Sep-18 13:38 32.773204 -117.214122 197 1431ft 116kts
01-Sep-18 13:39 32.756121 -117.192936 98 1221ft 101kts
01-Sep-18 13:40 32.751021 -117.161387 102 1109ft 95kts
01-Sep-18 13:41 32.733057 -117.151563 202 1100ft 75kts
01-Sep-18 13:42 32.729273 -117.172415 283 420ft 76kts
01-Sep-18 13:43 32.732871 -117.187648 273 16ft 20kts
01-Sep-18 13:44 32.732254 -117.190520 215 15ft 19kts

Navigation Log

Ident Type
1. KLAX Airport
2. KSAN Airport